createdAt,value
2018-12-06T00:00:46.629Z,66.29
2018-12-06T00:03:14.548Z,65.64
2018-12-06T00:05:42.531Z,64.67
2018-12-06T00:08:18.303Z,64.37
2018-12-06T00:10:46.930Z,66.01
2018-12-06T00:13:14.860Z,65.69
2018-12-06T00:15:42.997Z,66.04
2018-12-06T00:18:11.092Z,65.25
2018-12-06T00:20:40.259Z,66.61
2018-12-06T00:23:08.520Z,67.57
2018-12-06T00:25:36.562Z,66.03
2018-12-06T00:28:04.779Z,66.87
2018-12-06T00:30:36.166Z,65.04
2018-12-06T00:33:04.785Z,65.89
2018-12-06T00:35:32.761Z,65.52
2018-12-06T00:38:00.870Z,67.61
2018-12-06T00:40:28.916Z,66.75
2018-12-06T00:42:57.189Z,65.12
2018-12-06T00:45:25.183Z,65.69
2018-12-06T00:47:53.227Z,65.04
2018-12-06T00:50:21.350Z,64.96
2018-12-06T00:52:50.236Z,66.39
2018-12-06T00:55:19.393Z,65.59
2018-12-06T00:57:48.063Z,65.29
2018-12-06T01:00:16.373Z,65.82
2018-12-06T01:02:44.576Z,63.87
2018-12-06T01:05:12.842Z,63.24
2018-12-06T01:07:41.485Z,63.58
2018-12-06T01:10:09.477Z,64.62
2018-12-06T01:12:37.631Z,63.65
2018-12-06T01:15:06.878Z,64.07
2018-12-06T01:17:34.883Z,63.81
2018-12-06T01:20:02.861Z,65.32
2018-12-06T01:22:31.093Z,64.43
2018-12-06T01:24:59.158Z,63.68
2018-12-06T01:27:28.280Z,64.55
2018-12-06T01:29:56.633Z,65.04
2018-12-06T01:32:24.672Z,63.83
2018-12-06T01:34:52.645Z,67.86
2018-12-06T01:37:21.204Z,63.44
2018-12-06T01:39:49.212Z,64.60
2018-12-06T01:42:17.176Z,65.59
2018-12-06T01:44:45.322Z,66.36
2018-12-06T01:47:13.267Z,64.83
2018-12-06T01:49:41.361Z,64.42
2018-12-06T01:52:09.306Z,63.83
2018-12-06T01:54:37.250Z,64.64
2018-12-06T01:57:05.097Z,66.29
2018-12-06T01:59:33.122Z,66.14
2018-12-06T02:02:01.192Z,64.37
2018-12-06T02:04:29.944Z,66.77
2018-12-06T02:06:57.949Z,65.94
2018-12-06T02:09:25.967Z,64.50
2018-12-06T02:11:53.949Z,65.17
2018-12-06T02:14:21.922Z,65.77
2018-12-06T02:16:49.933Z,66.09
2018-12-06T02:19:17.824Z,64.61
2018-12-06T02:21:45.773Z,63.89
2018-12-06T11:51:59.107Z,59.43
2018-12-06T11:54:27.176Z,57.76
2018-12-06T11:56:55.870Z,57.16
2018-12-06T11:59:27.149Z,56.72
2018-12-06T12:01:55.263Z,56.25
2018-12-06T12:04:24.532Z,56.89
2018-12-06T12:06:52.696Z,56.41
2018-12-06T12:09:21.125Z,57.26
2018-12-06T12:11:50.309Z,57.66
2018-12-06T12:14:30.215Z,56.96
2018-12-06T12:16:58.977Z,56.07
2018-12-06T12:19:29.275Z,54.13
2018-12-06T12:21:57.420Z,53.62
2018-12-06T12:24:26.493Z,55.12
2018-12-06T12:27:00.974Z,55.53
2018-12-06T12:29:29.069Z,56.45
2018-12-06T12:31:57.892Z,56.63
2018-12-06T12:34:26.157Z,56.71
2018-12-06T12:36:54.501Z,56.57
2018-12-06T12:39:23.300Z,55.52
2018-12-06T12:41:52.160Z,56.53
2018-12-06T12:44:20.165Z,58.25
2018-12-06T12:46:48.279Z,56.79
2018-12-06T12:49:16.386Z,55.14
2018-12-06T12:51:44.494Z,57.76
2018-12-06T12:54:14.968Z,54.96
2018-12-06T12:56:43.282Z,54.26
2018-12-06T12:59:12.945Z,54.07
2018-12-06T13:01:41.661Z,56.26
2018-12-06T13:04:09.751Z,55.21
2018-12-06T13:06:37.974Z,55.39
2018-12-06T13:09:07.560Z,55.95
2018-12-06T13:11:36.404Z,56.37
2018-12-06T13:14:05.131Z,56.92
2018-12-06T13:16:33.367Z,57.01
2018-12-06T13:19:04.528Z,57.05
2018-12-06T13:21:32.504Z,57.24
2018-12-06T13:24:00.502Z,57.38
2018-12-06T13:26:28.481Z,57.40
2018-12-06T13:28:56.603Z,57.13
2018-12-06T13:31:24.716Z,57.93
2018-12-06T13:33:52.936Z,58.51
2018-12-06T13:36:20.977Z,56.70
2018-12-06T13:38:49.240Z,56.58
2018-12-06T13:41:17.566Z,57.51
2018-12-06T13:43:45.780Z,57.76
2018-12-06T13:46:14.834Z,56.32
2018-12-06T13:48:43.244Z,55.77
2018-12-06T13:51:15.179Z,57.03
2018-12-06T13:53:45.348Z,50.03
2018-12-06T13:56:13.483Z,50.08
2018-12-06T13:58:41.552Z,51.89
2018-12-06T14:01:09.804Z,53.14
2018-12-06T14:03:38.058Z,54.01
2018-12-06T14:06:06.445Z,55.42
2018-12-06T14:08:34.748Z,55.68
2018-12-06T14:11:03.113Z,56.42
2018-12-06T14:13:32.163Z,56.93
2018-12-06T14:16:00.836Z,57.45
2018-12-06T14:18:31.767Z,57.48
2018-12-06T14:21:00.170Z,58.19
2018-12-06T14:23:28.269Z,58.29
2018-12-06T14:25:57.809Z,65.55
2018-12-06T14:28:26.705Z,60.13
2018-12-06T14:30:55.704Z,61.68
2018-12-06T14:33:25.769Z,62.87
2018-12-06T14:35:53.857Z,57.96
2018-12-06T14:38:22.382Z,59.94
2018-12-06T14:40:50.957Z,60.55
2018-12-06T14:43:18.937Z,59.95
2018-12-06T14:45:47.442Z,61.20
2018-12-06T14:48:15.829Z,61.80
2018-12-06T14:50:44.044Z,61.98
2018-12-06T14:53:12.735Z,63.58
2018-12-06T14:55:41.913Z,62.14
2018-12-06T14:58:11.456Z,63.03
2018-12-06T15:00:39.404Z,65.88
2018-12-06T15:03:08.971Z,63.46
2018-12-06T15:05:37.006Z,62.44
2018-12-06T15:08:05.057Z,63.13
2018-12-06T15:10:33.364Z,62.68
2018-12-06T15:13:01.527Z,65.62
2018-12-06T15:15:30.253Z,62.87
2018-12-06T15:17:58.307Z,63.79
2018-12-06T15:20:27.107Z,62.71
2018-12-06T15:22:55.715Z,65.31
2018-12-06T15:25:25.053Z,63.83
2018-12-06T15:27:54.434Z,64.95
2018-12-06T15:30:22.510Z,61.97
2018-12-06T15:32:54.004Z,64.50
2018-12-06T15:35:22.147Z,64.62
2018-12-06T15:37:50.093Z,63.80
2018-12-06T15:40:18.194Z,64.99
2018-12-06T15:42:49.743Z,62.92
2018-12-06T15:45:18.864Z,64.92
2018-12-06T15:47:53.182Z,64.07
2018-12-06T15:50:21.273Z,66.52
2018-12-06T15:52:49.440Z,64.25
2018-12-06T15:55:17.624Z,65.42
2018-12-06T15:57:45.821Z,62.92
2018-12-06T16:00:17.274Z,63.11
2018-12-06T16:02:51.294Z,63.12
2018-12-06T16:05:19.615Z,63.09
2018-12-06T16:07:48.314Z,63.08
2018-12-06T16:10:16.325Z,63.76
2018-12-06T16:12:45.153Z,64.12
2018-12-06T16:15:13.665Z,64.27
2018-12-06T16:17:42.652Z,65.22
2018-12-06T16:20:11.074Z,65.68
2018-12-06T16:22:39.360Z,67.13
2018-12-06T16:25:07.897Z,65.76
2018-12-06T16:27:36.139Z,65.67
2018-12-06T16:30:10.157Z,67.48
2018-12-06T16:32:39.184Z,67.80
2018-12-06T16:35:07.656Z,65.65
2018-12-06T16:37:36.088Z,66.54
2018-12-06T16:40:05.352Z,68.30
2018-12-06T16:42:34.587Z,67.36
2018-12-06T16:45:03.290Z,67.15
2018-12-06T16:47:31.419Z,68.63
2018-12-06T16:49:59.301Z,68.34
2018-12-06T16:52:27.355Z,71.85
2018-12-06T16:54:55.315Z,74.24
2018-12-06T16:57:23.664Z,69.58
2018-12-06T16:59:51.888Z,69.82
2018-12-06T17:02:20.152Z,69.48
2018-12-06T17:04:48.616Z,69.85
2018-12-06T17:07:16.870Z,70.34
2018-12-06T17:09:44.956Z,71.02
2018-12-06T17:12:14.257Z,72.18
2018-12-06T17:14:42.254Z,72.64
2018-12-06T17:17:10.512Z,73.31
2018-12-06T17:19:38.766Z,72.14
2018-12-06T17:22:07.029Z,71.30
2018-12-06T17:24:35.155Z,72.33
2018-12-06T17:27:03.567Z,73.21
2018-12-06T17:29:34.487Z,70.52
2018-12-06T17:32:02.718Z,70.86
2018-12-06T17:34:30.806Z,71.33
2018-12-06T17:36:58.735Z,75.85
2018-12-06T17:39:26.646Z,71.28
2018-12-06T17:41:54.816Z,69.59
2018-12-06T17:44:23.611Z,72.35
2018-12-06T17:46:51.493Z,72.92
2018-12-06T17:49:19.399Z,78.78
2018-12-06T17:51:47.504Z,74.28
2018-12-06T17:54:15.556Z,75.71
2018-12-06T17:56:43.949Z,71.19
2018-12-06T17:59:12.175Z,71.30
2018-12-06T18:01:40.186Z,72.71
2018-12-06T18:04:08.045Z,71.76
2018-12-06T18:06:36.080Z,74.14
2018-12-06T18:09:05.701Z,71.41
2018-12-06T18:11:34.200Z,72.91
2018-12-06T18:14:02.155Z,72.62
2018-12-06T18:16:30.209Z,73.74
2018-12-06T18:18:59.183Z,72.39
2018-12-06T18:21:30.179Z,71.53
2018-12-06T18:23:58.905Z,71.28
2018-12-06T18:26:27.181Z,69.54
2018-12-06T18:28:55.501Z,74.49
2018-12-06T18:31:23.548Z,74.76
2018-12-06T18:33:51.567Z,81.69
2018-12-06T18:36:20.721Z,75.93
2018-12-06T18:38:49.397Z,72.29
2018-12-06T18:41:17.526Z,75.26
2018-12-06T18:43:45.897Z,74.79
2018-12-06T18:46:14.612Z,70.96
2018-12-06T18:48:42.956Z,72.02
2018-12-06T18:51:11.156Z,72.93
2018-12-06T18:53:40.709Z,73.26
2018-12-06T18:56:08.892Z,75.46
2018-12-06T18:58:38.990Z,73.12
2018-12-06T19:01:07.387Z,73.25
2018-12-06T19:03:35.477Z,73.91
2018-12-06T19:06:04.604Z,77.23
2018-12-06T19:08:32.910Z,77.26
2018-12-06T19:11:01.723Z,74.27
2018-12-06T19:13:30.102Z,73.50
2018-12-06T19:15:58.410Z,72.97
2018-12-06T19:18:26.773Z,73.75
2018-12-06T19:20:54.798Z,76.16
2018-12-06T19:23:22.792Z,72.27
2018-12-06T19:25:51.774Z,75.39
2018-12-06T19:28:20.330Z,75.23
2018-12-06T19:30:48.527Z,74.01
2018-12-06T19:33:16.989Z,73.25
2018-12-06T19:35:45.460Z,77.95
2018-12-06T19:38:15.585Z,75.37
2018-12-06T19:40:45.382Z,76.03
2018-12-06T19:43:14.273Z,78.49
2018-12-06T19:45:42.876Z,77.54
2018-12-06T19:48:13.854Z,81.21
2018-12-06T19:50:42.868Z,74.33
2018-12-06T19:53:10.887Z,73.36
2018-12-06T19:55:39.015Z,73.30
2018-12-06T19:58:07.292Z,76.11
2018-12-06T20:00:35.388Z,79.94
2018-12-06T20:03:04.804Z,79.64
2018-12-06T20:05:33.258Z,82.06
2018-12-06T20:08:02.756Z,74.78
2018-12-06T20:10:30.803Z,73.13
2018-12-06T20:13:01.128Z,71.48
2018-12-06T20:15:30.939Z,73.88
2018-12-06T20:17:59.141Z,72.00
2018-12-06T20:20:27.358Z,73.00
2018-12-06T20:22:55.469Z,73.93
2018-12-06T20:25:23.665Z,73.55
2018-12-06T20:27:53.116Z,74.92
2018-12-06T20:30:23.950Z,74.84
2018-12-06T20:32:52.251Z,75.69
2018-12-06T20:35:20.559Z,77.29
2018-12-06T20:37:49.205Z,78.28
2018-12-06T20:40:18.812Z,81.46
2018-12-06T20:42:46.817Z,82.23
2018-12-06T20:45:15.647Z,80.48
2018-12-06T20:47:52.442Z,81.41
2018-12-06T20:50:21.097Z,79.94
2018-12-06T20:52:50.952Z,79.32
2018-12-06T20:55:22.505Z,75.87
2018-12-06T20:57:59.799Z,76.37
2018-12-06T21:00:43.386Z,73.82
2018-12-06T21:03:19.216Z,73.51
2018-12-06T21:05:58.483Z,73.88
2018-12-06T21:08:39.444Z,74.40
2018-12-06T21:14:02.268Z,75.74
2018-12-06T21:16:39.061Z,75.78
2018-12-06T21:19:23.672Z,72.57
2018-12-06T21:25:07.326Z,70.98
2018-12-06T21:27:36.403Z,71.48
2018-12-06T21:30:05.632Z,72.11
2018-12-06T21:32:35.151Z,72.03
2018-12-06T21:35:03.387Z,74.57
2018-12-06T21:37:31.427Z,73.59
2018-12-06T21:39:59.304Z,75.43
2018-12-06T21:42:27.428Z,75.18
2018-12-06T21:44:55.360Z,73.76
2018-12-06T21:47:25.131Z,72.84
2018-12-06T21:49:53.656Z,74.05
2018-12-06T21:52:21.708Z,75.40
2018-12-06T21:54:49.852Z,78.94
2018-12-06T21:57:18.506Z,80.13
2018-12-06T21:59:47.273Z,74.19
2018-12-06T22:02:31.002Z,77.76
2018-12-06T22:04:59.009Z,73.26
2018-12-06T22:07:26.965Z,72.36
2018-12-06T22:09:57.796Z,77.35
2018-12-06T22:12:25.883Z,75.25
2018-12-06T22:14:53.909Z,74.05
2018-12-06T22:17:22.071Z,78.88
2018-12-06T22:19:50.092Z,78.00
2018-12-06T22:22:18.131Z,73.85
2018-12-06T22:24:46.061Z,74.39
2018-12-06T22:27:14.238Z,74.16
2018-12-06T22:29:42.208Z,74.96
2018-12-06T22:32:10.328Z,76.94
2018-12-06T22:34:39.177Z,76.56
2018-12-06T22:37:08.620Z,75.76
2018-12-06T22:39:37.453Z,78.12
2018-12-06T22:42:05.623Z,75.07
2018-12-06T22:44:33.669Z,74.84
2018-12-06T22:47:01.992Z,75.05
2018-12-06T22:49:31.164Z,75.37
2018-12-06T22:51:59.415Z,74.88
2018-12-06T22:54:27.604Z,78.69
2018-12-06T22:56:55.941Z,77.24
2018-12-06T22:59:24.052Z,76.67
2018-12-06T23:01:52.335Z,76.60
2018-12-06T23:04:20.443Z,76.89
2018-12-06T23:06:48.979Z,77.30
2018-12-06T23:09:17.349Z,77.57
2018-12-06T23:11:45.920Z,77.88
2018-12-06T23:14:14.149Z,77.86
2018-12-06T23:16:45.586Z,78.20
2018-12-06T23:19:13.576Z,78.39
2018-12-06T23:21:41.907Z,79.37
2018-12-06T23:24:09.928Z,78.91
2018-12-06T23:26:44.529Z,81.72
2018-12-06T23:29:12.778Z,83.42
2018-12-06T23:31:40.848Z,79.68
2018-12-06T23:34:09.140Z,81.23
2018-12-06T23:36:37.134Z,81.26
2018-12-06T23:39:07.917Z,82.29
2018-12-06T23:41:36.029Z,86.27
2018-12-06T23:44:05.144Z,83.58
2018-12-06T23:46:33.557Z,79.55
2018-12-06T23:49:01.700Z,77.99
2018-12-06T23:51:37.318Z,77.21
2018-12-06T23:54:05.333Z,77.24
2018-12-06T23:56:33.382Z,77.18
2018-12-06T23:59:01.625Z,76.50
